Time;durP1;ratioP1;P1;durP2;ratioP2;P2;SDS_P1;SDS_P2;PMS_P1;PMS_P2;Temp;Humidity;BMP_temperature;BMP_pressure;BME280_temperature;BME280_humidity;BME280_pressure;Samples;Min_cycle;Max_cycle;Signal;HPM_P1;HPM_P2
2022/03/02 01:30:36;;;;;;;1999.90;999.90;;;5.30;99.90;;;;;;6297841;22;20831;-78
2022/03/02 01:33:02;;;;;;;1999.90;999.90;;;5.30;99.90;;;;;;5092682;28;20413;-80
2022/03/02 01:35:28;;;;;;;1999.90;999.90;;;5.20;99.90;;;;;;5093107;28;20273;-81
2022/03/02 01:37:53;;;;;;;1999.90;999.90;;;5.20;99.90;;;;;;5093527;28;20169;-80
2022/03/02 01:40:19;;;;;;;1999.90;999.90;;;5.10;99.90;;;;;;5093365;28;20162;-80
2022/03/02 01:42:45;;;;;;;1999.90;999.90;;;5.10;99.90;;;;;;5093408;28;20662;-81
2022/03/02 01:45:12;;;;;;;1999.90;999.90;;;5.00;99.90;;;;;;5093158;28;20197;-79
2022/03/02 01:47:38;;;;;;;1999.90;999.90;;;4.90;99.90;;;;;;5093410;28;20173;-79
2022/03/02 01:50:07;;;;;;;1999.90;999.90;;;4.80;99.90;;;;;;5093443;28;20773;-79
2022/03/02 01:52:33;;;;;;;1999.90;999.90;;;4.80;99.90;;;;;;5093372;28;20438;-80
2022/03/02 01:54:58;;;;;;;1999.90;999.90;;;4.80;99.90;;;;;;5092994;28;20896;-79
2022/03/02 01:57:24;;;;;;;1999.90;999.90;;;4.70;99.90;;;;;;5093543;28;20170;-80
2022/03/02 01:59:50;;;;;;;1999.90;999.90;;;4.70;99.90;;;;;;5093156;28;20628;-79
2022/03/02 02:02:16;;;;;;;1999.90;999.90;;;4.60;99.90;;;;;;5093116;28;20232;-79
2022/03/02 02:04:41;;;;;;;1999.90;999.90;;;4.50;99.90;;;;;;5092791;28;20908;-80
2022/03/02 02:07:07;;;;;;;1999.90;999.90;;;4.50;99.90;;;;;;5093035;28;20175;-80
2022/03/02 02:09:33;;;;;;;1999.90;999.90;;;4.40;99.90;;;;;;5092873;28;20174;-79
2022/03/02 02:11:59;;;;;;;1999.90;999.90;;;4.40;99.90;;;;;;5092963;28;20463;-79
2022/03/02 02:14:25;;;;;;;1999.90;999.90;;;4.30;99.90;;;;;;5092807;28;20219;-79
2022/03/02 02:16:51;;;;;;;1999.90;999.90;;;4.20;99.90;;;;;;5093159;28;20849;-81
2022/03/02 02:19:17;;;;;;;1999.90;999.90;;;4.20;99.90;;;;;;5092834;28;20487;-79
2022/03/02 02:21:45;;;;;;;1999.90;999.90;;;4.20;99.90;;;;;;5092732;28;20213;-79
2022/03/02 02:24:11;;;;;;;1999.90;999.90;;;4.10;99.90;;;;;;5092714;28;20162;-79
2022/03/02 02:26:37;;;;;;;1999.90;999.90;;;4.00;99.90;;;;;;5092686;28;20407;-80
2022/03/02 02:29:04;;;;;;;1999.90;999.90;;;3.90;99.90;;;;;;5093052;28;20411;-79
2022/03/02 02:31:30;;;;;;;1999.90;999.90;;;3.80;99.90;;;;;;5092024;28;20213;-80
2022/03/02 02:33:56;;;;;;;1999.90;999.90;;;3.80;99.90;;;;;;5094890;28;20470;-79
2022/03/02 02:36:23;;;;;;;1999.90;999.90;;;3.80;99.90;;;;;;5095965;28;20173;-79
2022/03/02 02:38:49;;;;;;;1999.90;999.90;;;3.80;99.90;;;;;;5096198;28;20524;-80
2022/03/02 02:41:16;;;;;;;1999.90;999.90;;;3.80;99.90;;;;;;5095973;28;20431;-80
2022/03/02 02:43:42;;;;;;;1999.90;999.90;;;3.80;99.90;;;;;;5095955;28;20411;-79
2022/03/02 02:46:12;;;;;;;1999.90;999.90;;;3.80;99.90;;;;;;5095779;28;20753;-79
2022/03/02 02:48:38;;;;;;;1999.90;999.90;;;3.70;99.90;;;;;;5095939;28;20412;-81
2022/03/02 02:51:05;;;;;;;1999.90;999.90;;;3.70;99.90;;;;;;5095790;28;20531;-80
2022/03/02 03:23:51;;;;;;;1999.90;999.90;;;3.50;99.90;;;;;;5111971;28;20403;-80
2022/03/02 03:26:17;;;;;;;1999.90;999.90;;;3.60;99.90;;;;;;5094887;28;20249;-80
2022/03/02 03:28:43;;;;;;;1999.90;999.90;;;3.70;99.90;;;;;;5095106;28;20560;-79
2022/03/02 03:31:08;;;;;;;1999.90;999.90;;;3.70;99.90;;;;;;5094812;28;20229;-80
2022/03/02 03:33:34;;;;;;;1999.90;999.90;;;3.80;99.90;;;;;;5095115;28;20249;-81
2022/03/02 03:36:00;;;;;;;1999.90;999.90;;;3.80;99.90;;;;;;5094679;28;20170;-80
2022/03/02 03:38:25;;;;;;;1999.90;999.90;;;3.90;99.90;;;;;;5093759;28;20178;-80
2022/03/02 03:40:51;;;;;;;1999.90;999.90;;;4.00;99.90;;;;;;5094822;28;20925;-80
2022/03/02 03:43:17;;;;;;;1999.90;999.90;;;4.00;99.90;;;;;;5094846;28;20192;-80
2022/03/02 03:45:42;;;;;;;1999.90;999.90;;;4.00;99.90;;;;;;5093798;28;20448;-81
2022/03/02 03:48:09;;;;;;;1999.90;999.90;;;4.10;99.90;;;;;;5094793;28;20175;-80
2022/03/02 03:50:35;;;;;;;1999.90;999.90;;;4.10;99.90;;;;;;5094555;28;20194;-80
2022/03/02 03:53:00;;;;;;;1999.90;999.90;;;4.10;99.90;;;;;;5094602;28;20453;-80
2022/03/02 03:55:26;;;;;;;1999.90;999.90;;;4.10;99.90;;;;;;5094343;28;20619;-79
2022/03/02 03:57:52;;;;;;;1999.90;999.90;;;4.10;99.90;;;;;;5094562;28;20616;-80
2022/03/02 04:00:19;;;;;;;1999.90;999.90;;;4.20;99.90;;;;;;5094565;28;20171;-80
2022/03/02 04:02:45;;;;;;;1999.90;999.90;;;4.20;99.90;;;;;;5094320;28;20703;-80
2022/03/02 04:05:11;;;;;;;1999.90;999.90;;;4.20;99.90;;;;;;5094239;28;20440;-80
2022/03/02 04:07:38;;;;;;;1999.90;999.90;;;4.30;99.90;;;;;;5094434;28;20396;-80
2022/03/02 04:10:08;;;;;;;1999.90;999.90;;;4.30;99.90;;;;;;5094416;28;20173;-80
2022/03/02 04:12:35;;;;;;;1999.90;999.90;;;4.30;99.90;;;;;;5094202;28;20787;-80
2022/03/02 04:15:01;;;;;;;1999.90;999.90;;;4.30;99.90;;;;;;5093898;28;20393;-80
2022/03/02 04:17:27;;;;;;;1999.90;999.90;;;4.30;99.90;;;;;;5094171;28;20762;-80
2022/03/02 04:19:53;;;;;;;1999.90;999.90;;;4.30;99.90;;;;;;5094062;28;20389;-80
2022/03/02 04:22:18;;;;;;;1999.90;999.90;;;4.20;99.90;;;;;;5094047;28;20206;-80
2022/03/02 04:24:45;;;;;;;1999.90;999.90;;;4.20;99.90;;;;;;5092518;28;20401;-80
2022/03/02 04:27:11;;;;;;;1999.90;999.90;;;4.20;99.90;;;;;;5094133;28;20531;-79
2022/03/02 04:29:37;;;;;;;1999.90;999.90;;;4.10;99.90;;;;;;5093945;28;20399;-80
2022/03/02 04:32:03;;;;;;;1999.90;999.90;;;4.10;99.90;;;;;;5093639;28;20202;-80
2022/03/02 04:34:28;;;;;;;1999.90;999.90;;;4.10;99.90;;;;;;5093679;28;20244;-80
2022/03/02 04:36:54;;;;;;;1999.90;999.90;;;4.10;99.90;;;;;;5093786;28;20511;-80
2022/03/02 04:39:20;;;;;;;1999.90;999.90;;;4.00;99.90;;;;;;5093666;28;20173;-79
2022/03/02 04:41:45;;;;;;;1999.90;999.90;;;4.00;99.90;;;;;;5093673;28;20194;-81
2022/03/02 04:44:11;;;;;;;1999.90;999.90;;;4.00;99.90;;;;;;5093273;28;20404;-79
2022/03/02 04:46:37;;;;;;;1999.90;999.90;;;4.00;99.90;;;;;;5093576;28;20163;-80
2022/03/02 04:49:10;;;;;;;1999.90;999.90;;;4.00;99.90;;;;;;5093576;28;20201;-81
2022/03/02 05:29:17;;;;;;;1999.90;999.90;;;4.10;99.90;;;;;;5118153;28;20387;-81
2022/03/02 05:31:42;;;;;;;1999.90;999.90;;;4.00;99.90;;;;;;5093149;28;20468;-79
2022/03/02 05:34:08;;;;;;;1999.90;999.90;;;4.00;99.90;;;;;;5093187;28;20453;-80
2022/03/02 05:36:33;;;;;;;1999.90;999.90;;;3.90;99.90;;;;;;5093521;28;20166;-79
2022/03/02 05:38:59;;;;;;;1999.90;999.90;;;3.90;99.90;;;;;;5093589;28;20166;-79
2022/03/02 05:41:25;;;;;;;1999.90;999.90;;;3.90;99.90;;;;;;5093130;28;20666;-79
2022/03/02 05:43:53;;;;;;;1999.90;999.90;;;3.90;99.90;;;;;;5093293;28;20170;-80
2022/03/02 05:46:19;;;;;;;1999.90;999.90;;;4.00;99.90;;;;;;5093227;28;20162;-80
2022/03/02 05:48:44;;;;;;;1999.90;999.90;;;3.90;99.90;;;;;;5093341;28;20446;-80
2022/03/02 05:51:10;;;;;;;1999.90;999.90;;;3.90;99.90;;;;;;5093257;28;20547;-77
2022/03/02 05:53:36;;;;;;;1999.90;999.90;;;3.90;99.90;;;;;;5093149;28;20806;-79
2022/03/02 05:56:03;;;;;;;1999.90;999.90;;;3.90;99.90;;;;;;5093129;28;20167;-79
2022/03/02 05:58:29;;;;;;;1999.90;999.90;;;3.90;99.90;;;;;;5093206;28;20170;-79
2022/03/02 06:00:56;;;;;;;1999.90;999.90;;;3.90;99.90;;;;;;5093252;28;20431;-79
2022/03/02 06:03:21;;;;;;;1999.90;999.90;;;3.90;99.90;;;;;;5093039;28;20240;-79
2022/03/02 06:05:49;;;;;;;1999.90;999.90;;;3.90;99.90;;;;;;5092933;28;20396;-80
2022/03/02 06:08:14;;;;;;;1999.90;999.90;;;3.90;99.90;;;;;;5093443;28;20512;-80
2022/03/02 06:10:40;;;;;;;1999.90;999.90;;;3.90;99.90;;;;;;5093556;28;20209;-80
2022/03/02 06:13:07;;;;;;;1999.90;999.90;;;3.90;99.90;;;;;;5093833;28;20245;-80
2022/03/02 06:15:33;;;;;;;1999.90;999.90;;;4.00;99.90;;;;;;5093469;28;20169;-80
2022/03/02 06:18:03;;;;;;;1999.90;999.90;;;4.00;99.90;;;;;;5094017;28;20471;-80
2022/03/02 06:20:29;;;;;;;1999.90;999.90;;;3.90;99.90;;;;;;5093113;28;20385;-80
2022/03/02 06:22:55;;;;;;;1999.90;999.90;;;3.90;99.90;;;;;;5093479;28;20966;-80
2022/03/02 06:25:21;;;;;;;1999.90;999.90;;;3.90;99.90;;;;;;5093101;28;20185;-80
2022/03/02 06:27:47;;;;;;;1999.90;999.90;;;3.90;99.90;;;;;;5093302;28;20889;-81
2022/03/02 06:30:13;;;;;;;1999.90;999.90;;;3.90;99.90;;;;;;5093814;28;20893;-81
2022/03/02 06:32:39;;;;;;;1999.90;999.90;;;3.90;99.90;;;;;;5092853;28;20213;-81
2022/03/02 06:35:06;;;;;;;1999.90;999.90;;;4.00;99.90;;;;;;5093651;28;20396;-81
2022/03/02 06:37:33;;;;;;;1999.90;999.90;;;4.00;99.90;;;;;;5094362;28;20473;-80
2022/03/02 06:40:01;;;;;;;1999.90;999.90;;;4.00;99.90;;;;;;5094314;28;20401;-81
2022/03/02 06:42:44;;;;;;;1999.90;999.90;;;4.00;99.90;;;;;;5094131;28;20421;-81
2022/03/02 06:45:24;;;;;;;1999.90;999.90;;;4.00;99.90;;;;;;5093927;28;20858;-80
2022/03/02 06:47:56;;;;;;;1999.90;999.90;;;3.90;99.90;;;;;;5094053;28;20393;-81
2022/03/02 06:50:25;;;;;;;1999.90;999.90;;;3.90;99.90;;;;;;5093952;28;20453;-81
2022/03/02 06:52:54;;;;;;;1999.90;999.90;;;3.90;99.90;;;;;;5093881;28;20428;-81
2022/03/02 06:55:21;;;;;;;1999.90;999.90;;;3.90;99.90;;;;;;5093315;28;20495;-82
2022/03/02 06:57:53;;;;;;;1999.90;999.90;;;4.00;99.90;;;;;;5094027;28;20838;-81
2022/03/02 07:00:19;;;;;;;1999.90;999.90;;;4.00;99.90;;;;;;5093840;28;20411;-81
2022/03/02 07:02:45;;;;;;;1999.90;999.90;;;4.10;99.90;;;;;;5093737;28;20431;-80
2022/03/02 07:05:11;;;;;;;1999.90;999.90;;;4.10;99.90;;;;;;5093401;28;20401;-81
2022/03/02 07:07:38;;;;;;;1999.90;999.90;;;4.10;99.90;;;;;;5093935;28;20412;-81
2022/03/02 07:10:06;;;;;;;1999.90;999.90;;;4.10;99.90;;;;;;5094358;28;20435;-81
2022/03/02 07:12:32;;;;;;;1999.90;999.90;;;4.10;99.90;;;;;;5093482;28;20524;-81
2022/03/02 07:14:58;;;;;;;1999.90;999.90;;;4.10;99.90;;;;;;5093825;28;20848;-81
2022/03/02 07:17:26;;;;;;;1999.90;999.90;;;4.10;99.90;;;;;;5093691;28;20403;-80
2022/03/02 07:19:52;;;;;;;1999.90;999.90;;;4.20;99.90;;;;;;5094758;28;20163;-81
2022/03/02 07:22:21;;;;;;;1999.90;999.90;;;4.30;99.90;;;;;;5097647;28;20439;-81
2022/03/02 07:24:55;;;;;;;1999.90;999.90;;;4.30;99.90;;;;;;5097182;28;20170;-81
2022/03/02 07:27:23;;;;;;;1999.90;999.90;;;4.40;99.90;;;;;;5097105;28;20409;-81
2022/03/02 07:29:50;;;;;;;1999.90;999.90;;;4.40;99.90;;;;;;5097833;28;20404;-81
2022/03/02 07:32:23;;;;;;;1999.90;999.90;;;4.50;99.90;;;;;;5097376;28;20466;-81
2022/03/02 07:34:55;;;;;;;1999.90;999.90;;;4.60;99.90;;;;;;5097358;28;20393;-81
2022/03/02 07:37:21;;;;;;;1999.90;999.90;;;4.60;99.90;;;;;;5097215;28;20388;-80
2022/03/02 07:39:48;;;;;;;1999.90;999.90;;;4.70;99.90;;;;;;5097648;28;20408;-81
2022/03/02 07:42:13;;;;;;;1999.90;999.90;;;4.80;99.90;;;;;;5097047;28;20455;-81
2022/03/02 07:44:41;;;;;;;1999.90;999.90;;;4.80;99.90;;;;;;5096954;28;20419;-81
2022/03/02 07:47:07;;;;;;;1999.90;999.90;;;4.80;99.90;;;;;;5112977;28;20171;-81
2022/03/02 07:49:33;;;;;;;1999.90;999.90;;;4.90;99.90;;;;;;5096917;28;20454;-81
2022/03/02 07:52:03;;;;;;;1999.90;999.90;;;5.00;99.90;;;;;;5096536;28;20455;-80
2022/03/02 07:54:30;;;;;;;1999.90;999.90;;;5.00;99.90;;;;;;5096370;28;20401;-81
2022/03/02 07:56:57;;;;;;;1999.90;999.90;;;5.10;99.90;;;;;;5096924;28;20400;-81
2022/03/02 07:59:23;;;;;;;1999.90;999.90;;;5.20;99.90;;;;;;5097141;28;20397;-80
2022/03/02 08:01:49;;;;;;;1999.90;999.90;;;5.20;99.90;;;;;;5096046;28;20952;-80
2022/03/02 08:04:14;;;;;;;1999.90;999.90;;;5.30;99.90;;;;;;5096508;28;20412;-80
2022/03/02 08:06:41;;;;;;;1999.90;999.90;;;5.40;99.90;;;;;;5096823;28;20785;-81
2022/03/02 08:09:09;;;;;;;1999.90;999.90;;;5.40;99.90;;;;;;5096560;28;20171;-81
2022/03/02 08:11:40;;;;;;;1999.90;999.90;;;5.50;99.90;;;;;;5096448;28;20863;-80
2022/03/02 08:14:07;;;;;;;1999.90;999.90;;;5.50;99.90;;;;;;5096266;28;20866;-81
2022/03/02 08:16:33;;;;;;;1999.90;999.90;;;5.60;99.90;;;;;;5094871;28;20431;-81
2022/03/02 08:19:01;;;;;;;1999.90;999.90;;;5.70;99.90;;;;;;5096548;28;20396;-81
2022/03/02 08:21:32;;;;;;;1999.90;999.90;;;5.80;99.90;;;;;;5095713;28;20186;-79
2022/03/02 08:24:01;;;;;;;1999.90;999.90;;;5.80;99.90;;;;;;5096157;28;20423;-81
2022/03/02 08:26:32;;;;;;;1999.90;999.90;;;5.90;99.90;;;;;;5096261;28;20404;-81
2022/03/02 08:29:11;;;;;;;1999.90;999.90;;;6.00;99.90;;;;;;5096177;28;20792;-81
2022/03/02 08:31:39;;;;;;;1999.90;999.90;;;6.10;99.90;;;;;;5094206;28;20463;-80
2022/03/02 08:34:06;;;;;;;1999.90;999.90;;;6.20;99.90;;;;;;5095583;28;20430;-81
2022/03/02 08:36:36;;;;;;;1999.90;999.90;;;6.30;99.90;;;;;;5095815;28;20393;-81
2022/03/02 08:39:10;;;;;;;1999.90;999.90;;;6.30;99.90;;;;;;5095703;28;20400;-80
2022/03/02 08:41:39;;;;;;;1999.90;999.90;;;6.40;99.90;;;;;;5095961;28;20448;-80
2022/03/02 08:44:05;;;;;;;1999.90;999.90;;;6.40;99.90;;;;;;5095411;28;20444;-80
2022/03/02 08:46:31;;;;;;;1999.90;999.90;;;6.60;99.90;;;;;;5095392;28;20435;-80
2022/03/02 08:48:57;;;;;;;1999.90;999.90;;;6.60;99.90;;;;;;5096176;28;20412;-81
2022/03/02 08:51:25;;;;;;;1999.90;999.90;;;6.70;99.90;;;;;;5096098;28;21047;-80
2022/03/02 08:53:58;;;;;;;1999.90;999.90;;;6.80;99.90;;;;;;5095514;28;20404;-81
2022/03/02 08:56:25;;;;;;;1999.90;999.90;;;6.90;99.90;;;;;;5095668;28;20374;-81
2022/03/02 08:58:52;;;;;;;1999.90;999.90;;;7.00;99.90;;;;;;5095534;28;20404;-81
2022/03/02 09:01:19;;;;;;;1999.90;999.90;;;7.10;99.90;;;;;;5095673;28;20431;-81
2022/03/02 09:03:48;;;;;;;1999.90;999.90;;;7.20;99.90;;;;;;5095446;28;20454;-81
2022/03/02 09:06:18;;;;;;;1999.90;999.90;;;7.20;99.90;;;;;;5095283;28;20401;-81
2022/03/02 10:13:44;;;;;;;1999.90;999.90;;;9.60;98.00;;;;;;5039110;28;20419;-81
2022/03/02 10:16:15;;;;;;;1999.90;999.90;;;9.70;95.40;;;;;;5032045;28;20422;-81
2022/03/02 10:18:41;;;;;;;1999.90;999.90;;;9.60;90.50;;;;;;5031623;28;20405;-80
2022/03/02 10:21:07;;;;;;;1999.90;999.90;;;9.60;93.40;;;;;;5091609;28;20445;-81
2022/03/02 10:23:39;;;;;;;1999.90;999.90;;;9.70;94.00;;;;;;5093696;28;20500;-81
2022/03/02 10:26:34;;;;;;;1999.90;999.90;;;9.80;91.60;;;;;;5093984;28;20162;-81
2022/03/02 10:29:03;;;;;;;1999.90;999.90;;;10.00;88.60;;;;;;5092574;28;20417;-81
2022/03/02 10:31:44;;;;;;;1999.90;999.90;;;10.00;90.30;;;;;;5093605;28;20601;-80
2022/03/02 10:34:25;;;;;;;1999.90;999.90;;;10.10;90.70;;;;;;5093603;28;20395;-81
2022/03/02 10:37:06;;;;;;;1999.90;999.90;;;10.30;90.40;;;;;;5093814;28;20442;-81
2022/03/02 10:40:16;;;;;;;1999.90;999.90;;;10.50;86.70;;;;;;5093662;28;20400;-81
2022/03/02 10:42:44;;;;;;;1999.90;999.90;;;10.50;79.20;;;;;;5093837;28;20462;-81
2022/03/02 10:45:13;;;;;;;1999.90;999.90;;;10.60;76.40;;;;;;5093512;28;20407;-80
2022/03/02 10:48:08;;;;;;;1999.90;999.90;;;10.60;76.80;;;;;;5093817;28;20410;-80
2022/03/02 11:18:00;;;;;;;1999.90;999.90;;;11.80;55.60;;;;;;5009120;28;20450;-83
2022/03/02 11:20:29;;;;;;;1999.90;999.90;;;11.90;52.60;;;;;;5040956;28;20433;-83
2022/03/02 11:22:57;;;;;;;1999.90;999.90;;;11.90;49.70;;;;;;5098824;28;20763;-82
2022/03/02 11:25:44;;;;;;;1999.90;999.90;;;11.80;52.20;;;;;;5098377;28;20407;-81
2022/03/02 11:28:15;;;;;;;1999.90;999.90;;;11.90;52.80;;;;;;5098930;28;20433;-83
2022/03/02 11:30:49;;;;;;;1999.90;999.90;;;11.90;52.70;;;;;;5098145;28;20451;-81
2022/03/02 11:33:16;;;;;;;1999.90;999.90;;;12.00;50.90;;;;;;5098343;28;20400;-81
2022/03/02 11:35:42;;;;;;;1999.90;999.90;;;12.00;51.20;;;;;;5099593;28;20401;-82
2022/03/02 11:38:08;;;;;;;1999.90;999.90;;;12.30;53.30;;;;;;5098800;28;20393;-82
2022/03/02 11:40:45;;;;;;;1999.90;999.90;;;12.40;54.10;;;;;;5100471;28;20437;-83
2022/03/02 11:43:22;;;;;;;1999.90;999.90;;;12.50;49.70;;;;;;5098723;28;20528;-82
2022/03/02 11:45:51;;;;;;;1999.90;999.90;;;12.80;52.30;;;;;;5099097;28;20400;-83
2022/03/02 11:48:20;;;;;;;1999.90;999.90;;;13.40;50.50;;;;;;5098595;28;20854;-83
2022/03/02 11:51:26;;;;;;;1999.90;999.90;;;14.10;47.20;;;;;;5098467;28;20446;-82
2022/03/02 11:53:58;;;;;;;1999.90;999.90;;;15.00;42.60;;;;;;5098743;28;20474;-81
2022/03/02 11:56:27;;;;;;;1999.90;999.90;;;16.10;38.00;;;;;;5097622;28;20417;-82
2022/03/02 11:59:00;;;;;;;1999.90;999.90;;;16.90;33.90;;;;;;5097214;28;20917;-83
2022/03/02 12:01:37;;;;;;;1999.90;999.90;;;17.70;28.40;;;;;;5097501;28;20431;-83
2022/03/02 12:04:06;;;;;;;1999.90;999.90;;;18.30;25.50;;;;;;5096597;28;20400;-82
2022/03/02 12:06:41;;;;;;;1999.90;999.90;;;18.80;24.00;;;;;;5095272;28;20412;-81
2022/03/02 12:09:08;;;;;;;1999.90;999.90;;;19.10;22.80;;;;;;5096315;28;20469;-84
2022/03/02 12:11:37;;;;;;;1999.90;999.90;;;19.60;22.80;;;;;;5099099;28;20452;-82
2022/03/02 12:14:04;;;;;;;1999.90;999.90;;;20.00;21.90;;;;;;5100785;28;20408;-80
2022/03/02 12:16:46;;;;;;;1999.90;999.90;;;20.20;18.60;;;;;;5101092;28;20407;-81
2022/03/02 12:19:38;;;;;;;1999.90;999.90;;;20.40;18.20;;;;;;5100465;28;20419;-81
2022/03/02 12:22:06;;;;;;;1999.90;999.90;;;20.80;17.30;;;;;;5097499;28;20429;-79
2022/03/02 12:24:33;;;;;;;1999.90;999.90;;;21.30;16.80;;;;;;5100373;28;20409;-81
2022/03/02 12:27:05;;;;;;;1999.90;999.90;;;20.40;12.90;;;;;;5099736;28;20412;-81
2022/03/02 12:29:33;;;;;;;1999.90;999.90;;;20.40;14.40;;;;;;5100351;28;20465;-81
2022/03/02 12:32:05;;;;;;;1999.90;999.90;;;20.20;12.00;;;;;;5100572;28;20514;-79
2022/03/02 12:34:39;;;;;;;1999.90;999.90;;;20.40;12.60;;;;;;5099373;28;20405;-81
2022/03/02 12:37:06;;;;;;;1999.90;999.90;;;20.60;14.40;;;;;;5100241;28;20444;-81
2022/03/02 12:39:32;;;;;;;1999.90;999.90;;;20.90;12.70;;;;;;5100552;28;20393;-81
2022/03/02 12:41:58;;;;;;;1999.90;999.90;;;21.20;13.40;;;;;;5099272;28;20429;-81
2022/03/02 12:44:25;;;;;;;1999.90;999.90;;;21.60;11.90;;;;;;5100217;28;20965;-81
2022/03/02 12:46:54;;;;;;;1999.90;999.90;;;21.50;10.10;;;;;;5099959;28;20377;-81
2022/03/02 12:49:25;;;;;;;1999.90;999.90;;;21.90;11.50;;;;;;5099407;28;20404;-80
2022/03/02 12:51:56;;;;;;;1999.90;999.90;;;22.30;10.40;;;;;;5099539;28;20512;-81
2022/03/02 12:54:23;;;;;;;1999.90;999.90;;;21.60;9.90;;;;;;5099634;28;20391;-81
2022/03/02 12:56:50;;;;;;;1999.90;999.90;;;21.40;10.90;;;;;;5099799;28;20409;-81
2022/03/02 12:59:17;;;;;;;1999.90;999.90;;;21.20;9.30;;;;;;5100010;28;20442;-81
2022/03/02 13:01:46;;;;;;;1999.90;999.90;;;21.40;9.70;;;;;;5099321;28;20428;-80
2022/03/02 13:04:18;;;;;;;1999.90;999.90;;;21.80;9.40;;;;;;5098555;28;20402;-81
2022/03/02 13:06:52;;;;;;;1999.90;999.90;;;22.60;10.70;;;;;;5099085;28;20390;-81
2022/03/02 13:09:22;;;;;;;1999.90;999.90;;;22.90;9.10;;;;;;5099850;28;20379;-81
2022/03/02 13:11:47;;;;;;;1999.90;999.90;;;22.90;7.80;;;;;;5099945;28;21000;-81
2022/03/02 13:14:36;;;;;;;1999.90;999.90;;;22.70;7.90;;;;;;5098743;28;20416;-81
2022/03/02 13:17:16;;;;;;;1999.90;999.90;;;22.80;8.70;;;;;;5082536;28;20459;-80
2022/03/02 13:19:51;;;;;;;1999.90;999.90;;;23.40;9.30;;;;;;5100321;28;20442;-80
2022/03/02 13:22:27;;;;;;;1999.90;999.90;;;23.80;8.50;;;;;;5099193;28;20414;-80
2022/03/02 13:24:55;;;;;;;1999.90;999.90;;;24.00;6.10;;;;;;5100683;28;20374;-80
2022/03/02 13:27:23;;;;;;;1999.90;999.90;;;23.90;5.10;;;;;;5100827;28;20389;-81
2022/03/02 13:29:51;;;;;;;1999.90;999.90;;;23.80;6.90;;;;;;5100711;28;20383;-80
2022/03/02 13:32:18;;;;;;;1999.90;999.90;;;23.20;6.80;;;;;;5096994;28;20464;-80
2022/03/02 13:47:28;;;;;;;1999.90;999.90;;;22.30;6.40;;;;;;5052479;28;20418;-79
2022/03/02 13:50:15;;;;;;;1999.90;999.90;;;22.40;5.70;;;;;;5052644;28;20426;-80
2022/03/02 13:56:09;;;;;;;1999.90;999.90;;;22.40;7.80;;;;;;5095611;28;20416;-80
2022/03/02 13:58:41;;;;;;;1999.90;999.90;;;23.20;7.20;;;;;;5111287;28;20412;-80
2022/03/02 14:01:17;;;;;;;1999.90;999.90;;;23.70;6.30;;;;;;5095514;28;20403;-80
2022/03/02 14:04:19;;;;;;;1999.90;999.90;;;24.40;6.10;;;;;;5094976;28;20382;-79
2022/03/02 14:07:01;;;;;;;1999.90;999.90;;;24.80;5.50;;;;;;5094398;28;20379;-80
2022/03/02 14:09:27;;;;;;;1999.90;999.90;;;24.60;5.20;;;;;;5110253;28;20389;-80
2022/03/02 14:29:39;;;;;;;1999.90;999.90;;;24.30;5.00;;;;;;5095299;28;20463;-80
2022/03/02 14:32:11;;;;;;;1999.90;999.90;;;24.80;3.70;;;;;;5098710;28;20463;-80
2022/03/02 14:34:47;;;;;;;1999.90;999.90;;;25.40;3.40;;;;;;5099705;28;20462;-80
2022/03/02 14:37:23;;;;;;;1999.90;999.90;;;25.30;2.50;;;;;;5099446;28;20396;-80
2022/03/02 14:40:04;;;;;;;1999.90;999.90;;;25.60;3.30;;;;;;5099153;28;20396;-80
2022/03/02 14:42:30;;;;;;;1999.90;999.90;;;25.40;3.30;;;;;;5098996;28;20476;-80
2022/03/02 14:45:25;;;;;;;1999.90;999.90;;;25.70;3.10;;;;;;5080903;28;20478;-80
2022/03/02 14:47:52;;;;;;;1999.90;999.90;;;26.00;3.70;;;;;;5080743;28;20175;-80
2022/03/02 14:50:26;;;;;;;1999.90;999.90;;;26.50;3.90;;;;;;5098567;28;20912;-80
2022/03/02 14:53:16;;;;;;;1999.90;999.90;;;26.90;1.80;;;;;;5080646;28;20438;-80
2022/03/02 14:56:00;;;;;;;1999.90;999.90;;;27.40;2.50;;;;;;5098643;28;20913;-80
2022/03/02 14:58:33;;;;;;;1999.90;999.90;;;27.80;1.10;;;;;;5080632;28;20918;-80
2022/03/02 15:01:08;;;;;;;1999.90;999.90;;;27.60;1.00;;;;;;5101274;28;20432;-81
2022/03/02 15:03:46;;;;;;;1999.90;999.90;;;27.40;1.00;;;;;;5102492;28;20402;-80
2022/03/02 15:06:14;;;;;;;1999.90;999.90;;;27.50;1.00;;;;;;5101805;28;20408;-81
2022/03/02 15:08:58;;;;;;;1999.90;999.90;;;27.20;1.00;;;;;;5102590;28;20396;-81
2022/03/02 15:11:36;;;;;;;1999.90;999.90;;;26.90;1.00;;;;;;5101112;28;20451;-81
2022/03/02 15:17:07;;;;;;;1999.90;999.90;;;26.90;1.00;;;;;;5098428;28;20387;-80
2022/03/02 15:19:40;;;;;;;1999.90;999.90;;;27.00;1.00;;;;;;5098291;28;20395;-80
2022/03/02 15:41:29;;;;;;;1999.90;999.90;;;26.40;1.90;;;;;;5100715;28;20459;-81
2022/03/02 15:44:08;;;;;;;1999.90;999.90;;;27.00;1.00;;;;;;5100233;28;20404;-81
2022/03/02 15:46:34;;;;;;;1999.90;999.90;;;27.10;1.00;;;;;;5101585;28;20411;-81
2022/03/02 15:49:00;;;;;;;1999.90;999.90;;;27.20;1.00;;;;;;5102166;28;20392;-80
2022/03/02 15:51:25;;;;;;;1999.90;999.90;;;27.30;1.00;;;;;;5102120;28;20193;-78
2022/03/02 15:53:51;;;;;;;1999.90;999.90;;;27.00;1.00;;;;;;5102145;28;20158;-80
2022/03/02 15:56:21;;;;;;;1999.90;999.90;;;26.90;1.00;;;;;;5097561;28;20244;-79
2022/03/02 15:58:47;;;;;;;1999.90;999.90;;;27.00;1.00;;;;;;5097144;28;20162;-80
2022/03/02 16:01:18;;;;;;;1999.90;999.90;;;26.90;1.00;;;;;;5118962;28;20432;-81
2022/03/02 16:03:58;;;;;;;1999.90;999.90;;;26.80;1.00;;;;;;5104165;28;20404;-80
2022/03/02 16:06:24;;;;;;;1999.90;999.90;;;26.30;1.00;;;;;;5104257;28;20386;-79
2022/03/02 16:08:49;;;;;;;1999.90;999.90;;;25.80;1.80;;;;;;5103928;28;20383;-79
2022/03/02 16:11:25;;;;;;;1999.90;999.90;;;25.80;1.50;;;;;;5104109;28;20494;-80
2022/03/02 16:14:10;;;;;;;1999.90;999.90;;;25.80;1.40;;;;;;5105033;28;20185;-80
2022/03/02 16:16:39;;;;;;;1999.90;999.90;;;24.90;1.00;;;;;;5106028;28;20818;-78
2022/03/02 16:19:17;;;;;;;1999.90;999.90;;;24.40;2.20;;;;;;5106103;28;20375;-80
2022/03/02 16:21:45;;;;;;;1999.90;999.90;;;24.20;4.30;;;;;;5106253;28;20409;-80
2022/03/02 16:24:37;;;;;;;1999.90;999.90;;;24.10;4.70;;;;;;5105830;28;20861;-80
2022/03/02 16:27:24;;;;;;;1999.90;999.90;;;24.20;3.10;;;;;;5104911;28;20379;-80
2022/03/02 16:29:52;;;;;;;1999.90;999.90;;;24.00;4.40;;;;;;5106068;28;20466;-81
2022/03/02 16:32:18;;;;;;;1999.90;999.90;;;23.80;3.80;;;;;;5106034;28;20934;-80
2022/03/02 16:34:52;;;;;;;1999.90;999.90;;;23.60;3.70;;;;;;5105370;28;20371;-79
2022/03/02 16:37:19;;;;;;;1999.90;999.90;;;23.30;3.40;;;;;;5098833;28;20457;-80
2022/03/02 16:39:50;;;;;;;1999.90;999.90;;;22.80;3.80;;;;;;5098345;28;20903;-81
2022/03/02 16:42:15;;;;;;;1999.90;999.90;;;22.50;4.50;;;;;;5107029;28;20442;-80
2022/03/02 16:44:45;;;;;;;1999.90;999.90;;;22.40;5.60;;;;;;5110373;28;20381;-80
2022/03/02 16:50:41;;;;;;;1999.90;999.90;;;21.70;6.20;;;;;;5110458;28;20409;-80
2022/03/02 16:53:07;;;;;;;1999.90;999.90;;;21.30;6.10;;;;;;5110557;28;20414;-80
2022/03/02 16:55:33;;;;;;;1999.90;999.90;;;20.70;5.40;;;;;;5110709;28;20416;-80
2022/03/02 16:58:00;;;;;;;1999.90;999.90;;;19.80;5.40;;;;;;5109342;28;20914;-80
2022/03/02 17:00:32;;;;;;;1999.90;999.90;;;19.10;7.10;;;;;;5109186;28;20422;-79
2022/03/02 17:03:00;;;;;;;1999.90;999.90;;;18.40;8.00;;;;;;5109373;28;20451;-80
2022/03/02 17:05:51;;;;;;;1999.90;999.90;;;17.70;8.70;;;;;;5107448;28;20436;-80
2022/03/02 17:08:38;;;;;;;1999.90;999.90;;;17.10;9.70;;;;;;5105491;28;20404;-81
2022/03/02 17:11:03;;;;;;;1999.90;999.90;;;16.60;10.40;;;;;;5097248;28;20450;-80
2022/03/02 17:32:31;;;;;;;1999.90;999.90;;;14.30;17.30;;;;;;5093580;28;20558;-77
2022/03/02 17:34:57;;;;;;;1999.90;999.90;;;13.90;18.90;;;;;;5094488;28;20429;-77
2022/03/02 17:37:24;;;;;;;1999.90;999.90;;;13.80;19.10;;;;;;5075580;28;20997;-79
2022/03/02 17:39:51;;;;;;;1999.90;999.90;;;13.60;19.50;;;;;;5094329;28;20895;-78
2022/03/02 17:42:19;;;;;;;1999.90;999.90;;;13.50;20.80;;;;;;5094844;28;20523;-77
2022/03/02 17:45:21;;;;;;;1999.90;999.90;;;13.40;22.60;;;;;;5092985;28;20419;-78
2022/03/02 17:47:53;;;;;;;1999.90;999.90;;;13.20;22.80;;;;;;5062261;28;20408;-78